DLH562 LCPH-LLBG
Flight info
| Callsign | DLH562 |
|---|---|
| Flight time | 0h 38m |
| Altitude | 23000 |
| Route | ESER1W ESERI IDAKU L35 PIKOG L609 ZUKKO GODED2 |
| Aircraft | A321/M-VGDW/C |
Departure
| Time | 2026-05-09 00:48 |
|---|---|
| Airport | Paphos International Airport (LCPH) |
Arrival
| Time | 2026-05-09 01:27 |
|---|---|
| Airport | Ben Gurion International Airport (LLBG) |
| Time | Latitude | Longitude | Altitude | Speed | Heading |
|---|---|---|---|---|---|
| 2026-05-09 00:31 | 34.71349 | 32.48765 | 46 ft | 0 kts | 154° |
| 2026-05-09 00:41 | 34.71370 | 32.48753 | 42 ft | 3 kts | 154° |
| 2026-05-09 00:41 | 34.71389 | 32.48742 | 44 ft | 3 kts | 155° |
| 2026-05-09 00:41 | 34.71403 | 32.48734 | 43 ft | 3 kts | 144° |
| 2026-05-09 00:41 | 34.71415 | 32.48720 | 44 ft | 3 kts | 102° |
| 2026-05-09 00:42 | 34.71415 | 32.48698 | 45 ft | 3 kts | 71° |
| 2026-05-09 00:42 | 34.71411 | 32.48684 | 43 ft | 0 kts | 65° |
| 2026-05-09 00:44 | 34.71416 | 32.48698 | 45 ft | 5 kts | 65° |
| 2026-05-09 00:44 | 34.71441 | 32.48763 | 45 ft | 10 kts | 65° |
| 2026-05-09 00:44 | 34.71473 | 32.48848 | 46 ft | 12 kts | 65° |
| 2026-05-09 00:44 | 34.71505 | 32.48940 | 46 ft | 9 kts | 78° |
| 2026-05-09 00:45 | 34.71530 | 32.48982 | 46 ft | 6 kts | 11° |
| 2026-05-09 00:45 | 34.71585 | 32.49000 | 47 ft | 11 kts | 16° |
| 2026-05-09 00:45 | 34.71637 | 32.49053 | 48 ft | 11 kts | 77° |
| 2026-05-09 00:45 | 34.71606 | 32.49175 | 47 ft | 19 kts | 110° |
| 2026-05-09 00:46 | 34.71560 | 32.49339 | 45 ft | 22 kts | 108° |
| 2026-05-09 00:46 | 34.71503 | 32.49517 | 44 ft | 23 kts | 111° |
| 2026-05-09 00:46 | 34.71445 | 32.49704 | 43 ft | 21 kts | 111° |
| 2026-05-09 00:46 | 34.71379 | 32.49782 | 44 ft | 12 kts | 145° |
| 2026-05-09 00:47 | 34.71384 | 32.49848 | 45 ft | 7 kts | 7° |
| 2026-05-09 00:47 | 34.71410 | 32.49817 | 44 ft | 0 kts | 293° |
| 2026-05-09 00:47 | 34.71418 | 32.49795 | 44 ft | 15 kts | 292° |
| 2026-05-09 00:47 | 34.71555 | 32.49347 | 42 ft | 95 kts | 290° |
| 2026-05-09 00:48 | 34.71860 | 32.48349 | 45 ft | 157 kts | 290° |
| 2026-05-09 00:48 | 34.72256 | 32.47019 | 547 ft | 171 kts | 291° |
| 2026-05-09 00:48 | 34.72379 | 32.45570 | 1206 ft | 179 kts | 258° |
| 2026-05-09 00:48 | 34.71675 | 32.44286 | 1718 ft | 193 kts | 217° |
| 2026-05-09 00:49 | 34.70400 | 32.43642 | 2147 ft | 206 kts | 195° |
| 2026-05-09 00:49 | 34.68960 | 32.43273 | 2624 ft | 217 kts | 191° |
| 2026-05-09 00:49 | 34.67432 | 32.42974 | 3061 ft | 229 kts | 189° |
| 2026-05-09 00:49 | 34.65786 | 32.42672 | 3428 ft | 250 kts | 189° |
| 2026-05-09 00:50 | 34.64009 | 32.42325 | 3928 ft | 265 kts | 189° |
| 2026-05-09 00:50 | 34.62174 | 32.41933 | 4676 ft | 270 kts | 190° |
| 2026-05-09 00:50 | 34.60311 | 32.41507 | 5416 ft | 274 kts | 190° |
| 2026-05-09 00:50 | 34.58426 | 32.41053 | 6176 ft | 278 kts | 190° |
| 2026-05-09 00:51 | 34.56517 | 32.40578 | 6894 ft | 283 kts | 191° |
| 2026-05-09 00:51 | 34.54572 | 32.40088 | 7568 ft | 288 kts | 192° |
| 2026-05-09 00:51 | 34.52596 | 32.39594 | 8256 ft | 292 kts | 192° |
| 2026-05-09 00:51 | 34.50580 | 32.39145 | 8967 ft | 297 kts | 186° |
| 2026-05-09 00:52 | 34.48502 | 32.39226 | 9651 ft | 303 kts | 171° |
| 2026-05-09 00:52 | 34.46470 | 32.39983 | 10277 ft | 310 kts | 155° |
| 2026-05-09 00:52 | 34.44590 | 32.41347 | 10705 ft | 323 kts | 145° |
| 2026-05-09 00:52 | 34.42684 | 32.42914 | 10988 ft | 340 kts | 146° |
| 2026-05-09 00:53 | 34.40666 | 32.44544 | 11253 ft | 356 kts | 147° |
| 2026-05-09 00:53 | 34.38548 | 32.46229 | 11501 ft | 372 kts | 147° |
| 2026-05-09 00:53 | 34.36340 | 32.47971 | 11849 ft | 384 kts | 147° |
| 2026-05-09 00:53 | 34.34086 | 32.49748 | 12408 ft | 388 kts | 147° |
| 2026-05-09 00:54 | 34.31818 | 32.51540 | 13049 ft | 391 kts | 147° |
| 2026-05-09 00:54 | 34.29538 | 32.53346 | 13696 ft | 392 kts | 147° |
| 2026-05-09 00:54 | 34.27249 | 32.55159 | 14267 ft | 395 kts | 147° |
| 2026-05-09 00:54 | 34.24943 | 32.56985 | 14803 ft | 398 kts | 147° |
| 2026-05-09 00:55 | 34.22617 | 32.58827 | 15303 ft | 402 kts | 147° |
| 2026-05-09 00:55 | 34.20263 | 32.60687 | 15808 ft | 406 kts | 148° |
| 2026-05-09 00:55 | 34.17885 | 32.62563 | 16283 ft | 410 kts | 148° |
| 2026-05-09 00:55 | 34.15483 | 32.64454 | 16771 ft | 415 kts | 148° |
| 2026-05-09 00:56 | 34.13054 | 32.66366 | 17242 ft | 418 kts | 148° |
| 2026-05-09 00:56 | 34.10605 | 32.68293 | 17688 ft | 423 kts | 148° |
| 2026-05-09 00:56 | 34.08130 | 32.70240 | 18132 ft | 427 kts | 149° |
| 2026-05-09 00:56 | 34.05617 | 32.72175 | 18553 ft | 430 kts | 149° |
| 2026-05-09 00:57 | 34.03066 | 32.74090 | 18946 ft | 433 kts | 150° |
| 2026-05-09 00:57 | 34.00488 | 32.75997 | 19337 ft | 436 kts | 150° |
| 2026-05-09 00:57 | 33.97886 | 32.77910 | 19731 ft | 439 kts | 150° |
| 2026-05-09 00:57 | 33.95306 | 32.79809 | 20140 ft | 442 kts | 150° |
| 2026-05-09 00:58 | 33.92640 | 32.81776 | 20548 ft | 445 kts | 150° |
| 2026-05-09 00:58 | 33.90030 | 32.83711 | 20948 ft | 448 kts | 150° |
| 2026-05-09 00:58 | 33.87333 | 32.85713 | 21358 ft | 451 kts | 150° |
| 2026-05-09 00:58 | 33.84695 | 32.87676 | 21746 ft | 453 kts | 150° |
| 2026-05-09 00:59 | 33.82005 | 32.89678 | 22143 ft | 456 kts | 150° |
| 2026-05-09 00:59 | 33.79297 | 32.91688 | 22525 ft | 459 kts | 150° |
| 2026-05-09 00:59 | 33.76571 | 32.93708 | 22906 ft | 462 kts | 150° |
| 2026-05-09 00:59 | 33.73829 | 32.95738 | 23065 ft | 466 kts | 150° |
| 2026-05-09 01:00 | 33.71043 | 32.97798 | 23083 ft | 474 kts | 150° |
| 2026-05-09 01:00 | 33.68224 | 32.99881 | 23084 ft | 477 kts | 150° |
| 2026-05-09 01:00 | 33.65397 | 33.01970 | 23084 ft | 477 kts | 150° |
| 2026-05-09 01:00 | 33.62568 | 33.04061 | 23084 ft | 478 kts | 150° |
| 2026-05-09 01:01 | 33.59737 | 33.06155 | 23084 ft | 478 kts | 150° |
| 2026-05-09 01:01 | 33.56907 | 33.08247 | 23084 ft | 478 kts | 150° |
| 2026-05-09 01:01 | 33.54072 | 33.10338 | 23082 ft | 478 kts | 151° |
| 2026-05-09 01:01 | 33.51236 | 33.12422 | 23081 ft | 479 kts | 151° |
| 2026-05-09 01:02 | 33.48393 | 33.14507 | 23086 ft | 479 kts | 151° |
| 2026-05-09 01:02 | 33.45549 | 33.16589 | 23079 ft | 479 kts | 151° |
| 2026-05-09 01:02 | 33.42707 | 33.18672 | 23077 ft | 479 kts | 151° |
| 2026-05-09 01:02 | 33.39865 | 33.20757 | 23079 ft | 479 kts | 151° |
| 2026-05-09 01:03 | 33.37024 | 33.22843 | 23075 ft | 479 kts | 151° |
| 2026-05-09 01:03 | 33.34185 | 33.24923 | 23071 ft | 479 kts | 151° |
| 2026-05-09 01:03 | 33.31341 | 33.27004 | 23063 ft | 479 kts | 151° |
| 2026-05-09 01:03 | 33.28499 | 33.29079 | 23063 ft | 479 kts | 151° |
| 2026-05-09 01:04 | 33.25652 | 33.31158 | 23061 ft | 479 kts | 151° |
| 2026-05-09 01:04 | 33.22810 | 33.33233 | 23059 ft | 479 kts | 151° |
| 2026-05-09 01:04 | 33.19964 | 33.35309 | 23060 ft | 479 kts | 151° |
| 2026-05-09 01:04 | 33.17121 | 33.37386 | 23061 ft | 479 kts | 151° |
| 2026-05-09 01:05 | 33.14274 | 33.39459 | 23057 ft | 479 kts | 151° |
| 2026-05-09 01:05 | 33.11426 | 33.41530 | 22983 ft | 479 kts | 151° |
| 2026-05-09 01:05 | 33.05775 | 33.45633 | 21939 ft | 478 kts | 151° |
| 2026-05-09 01:06 | 33.02945 | 33.47692 | 21478 ft | 475 kts | 151° |
| 2026-05-09 01:06 | 33.00133 | 33.49736 | 21031 ft | 472 kts | 151° |
| 2026-05-09 01:06 | 32.97340 | 33.51762 | 20591 ft | 468 kts | 151° |
| 2026-05-09 01:06 | 32.94569 | 33.53769 | 20157 ft | 465 kts | 151° |
| 2026-05-09 01:07 | 32.91811 | 33.55762 | 19725 ft | 461 kts | 151° |
| 2026-05-09 01:07 | 32.89106 | 33.57718 | 19305 ft | 449 kts | 151° |
| 2026-05-09 01:07 | 32.86470 | 33.59623 | 18892 ft | 438 kts | 151° |
| 2026-05-09 01:07 | 32.83914 | 33.61505 | 18471 ft | 423 kts | 148° |
| 2026-05-09 01:08 | 32.81659 | 33.63616 | 18018 ft | 403 kts | 139° |
| 2026-05-09 01:08 | 32.79715 | 33.65948 | 17529 ft | 393 kts | 135° |
| 2026-05-09 01:08 | 32.77855 | 33.68247 | 17077 ft | 378 kts | 135° |
| 2026-05-09 01:08 | 32.76068 | 33.70454 | 16641 ft | 365 kts | 135° |
| 2026-05-09 01:09 | 32.74317 | 33.72613 | 16230 ft | 360 kts | 135° |
| 2026-05-09 01:09 | 32.72590 | 33.74736 | 15832 ft | 355 kts | 135° |
| 2026-05-09 01:09 | 32.70888 | 33.76829 | 15452 ft | 350 kts | 135° |
| 2026-05-09 01:09 | 32.69208 | 33.78895 | 15068 ft | 345 kts | 135° |
| 2026-05-09 01:10 | 32.67555 | 33.80935 | 14693 ft | 341 kts | 135° |
| 2026-05-09 01:10 | 32.65923 | 33.82949 | 14322 ft | 336 kts | 135° |
| 2026-05-09 01:10 | 32.64309 | 33.84935 | 13952 ft | 332 kts | 135° |
| 2026-05-09 01:10 | 32.62712 | 33.86896 | 13543 ft | 329 kts | 135° |
| 2026-05-09 01:11 | 32.61130 | 33.88833 | 13135 ft | 325 kts | 135° |
| 2026-05-09 01:11 | 32.59584 | 33.90721 | 12733 ft | 320 kts | 135° |
| 2026-05-09 01:11 | 32.58045 | 33.92601 | 12335 ft | 317 kts | 135° |
| 2026-05-09 01:11 | 32.56518 | 33.94470 | 11941 ft | 314 kts | 135° |
| 2026-05-09 01:12 | 32.55005 | 33.96330 | 11545 ft | 312 kts | 134° |
| 2026-05-09 01:12 | 32.53515 | 33.98191 | 11156 ft | 310 kts | 134° |
| 2026-05-09 01:12 | 32.52039 | 34.00046 | 10772 ft | 308 kts | 134° |
| 2026-05-09 01:12 | 32.50573 | 34.01888 | 10394 ft | 307 kts | 134° |
| 2026-05-09 01:13 | 32.49113 | 34.03716 | 10070 ft | 303 kts | 134° |
| 2026-05-09 01:13 | 32.47667 | 34.05523 | 10004 ft | 303 kts | 134° |
| 2026-05-09 01:13 | 32.46212 | 34.07336 | 10011 ft | 304 kts | 134° |
| 2026-05-09 01:13 | 32.44754 | 34.09151 | 10012 ft | 304 kts | 134° |
| 2026-05-09 01:14 | 32.43296 | 34.10967 | 10008 ft | 304 kts | 134° |
| 2026-05-09 01:14 | 32.42013 | 34.12943 | 9751 ft | 302 kts | 124° |
| 2026-05-09 01:14 | 32.40842 | 34.15000 | 9338 ft | 301 kts | 124° |
| 2026-05-09 01:14 | 32.39681 | 34.17048 | 8959 ft | 299 kts | 124° |
| 2026-05-09 01:15 | 32.38528 | 34.19079 | 8588 ft | 296 kts | 125° |
| 2026-05-09 01:15 | 32.37378 | 34.21094 | 8216 ft | 294 kts | 125° |
| 2026-05-09 01:15 | 32.36237 | 34.23086 | 7867 ft | 291 kts | 125° |
| 2026-05-09 01:15 | 32.35105 | 34.25056 | 7521 ft | 288 kts | 126° |
| 2026-05-09 01:16 | 32.33986 | 34.27005 | 7189 ft | 285 kts | 125° |
| 2026-05-09 01:16 | 32.32877 | 34.28936 | 6856 ft | 282 kts | 126° |
| 2026-05-09 01:16 | 32.31779 | 34.30848 | 6528 ft | 279 kts | 126° |
| 2026-05-09 01:17 | 32.29612 | 34.34620 | 5792 ft | 276 kts | 125° |
| 2026-05-09 01:17 | 32.28547 | 34.36468 | 5391 ft | 276 kts | 124° |
| 2026-05-09 01:17 | 32.27467 | 34.38339 | 5051 ft | 273 kts | 124° |
| 2026-05-09 01:17 | 32.26423 | 34.40150 | 4993 ft | 259 kts | 124° |
| 2026-05-09 01:18 | 32.25645 | 34.41501 | 4991 ft | 245 kts | 124° |
| 2026-05-09 01:18 | 32.24714 | 34.43114 | 5019 ft | 235 kts | 124° |
| 2026-05-09 01:18 | 32.23795 | 34.44705 | 4999 ft | 234 kts | 124° |
| 2026-05-09 01:18 | 32.22879 | 34.46289 | 5003 ft | 233 kts | 124° |
| 2026-05-09 01:19 | 32.21965 | 34.47870 | 5001 ft | 233 kts | 124° |
| 2026-05-09 01:19 | 32.21049 | 34.49450 | 5009 ft | 233 kts | 124° |
| 2026-05-09 01:19 | 32.20125 | 34.51023 | 5002 ft | 233 kts | 124° |
| 2026-05-09 01:19 | 32.19207 | 34.52594 | 5000 ft | 233 kts | 124° |
| 2026-05-09 01:20 | 32.18281 | 34.54163 | 5003 ft | 233 kts | 123° |
| 2026-05-09 01:20 | 32.17414 | 34.55772 | 5007 ft | 231 kts | 121° |
| 2026-05-09 01:20 | 32.16604 | 34.57340 | 4871 ft | 219 kts | 121° |
| 2026-05-09 01:20 | 32.15826 | 34.58851 | 4577 ft | 211 kts | 120° |
| 2026-05-09 01:21 | 32.15076 | 34.60305 | 4287 ft | 204 kts | 120° |
| 2026-05-09 01:21 | 32.14350 | 34.61712 | 3990 ft | 199 kts | 119° |
| 2026-05-09 01:21 | 32.13634 | 34.63098 | 3703 ft | 197 kts | 119° |
| 2026-05-09 01:21 | 32.12925 | 34.64471 | 3407 ft | 195 kts | 119° |
| 2026-05-09 01:22 | 32.12218 | 34.65840 | 3116 ft | 195 kts | 119° |
| 2026-05-09 01:22 | 32.11513 | 34.67206 | 2999 ft | 195 kts | 118° |
| 2026-05-09 01:22 | 32.10807 | 34.68571 | 3005 ft | 195 kts | 118° |
| 2026-05-09 01:22 | 32.10338 | 34.69477 | 3002 ft | 195 kts | 118° |
| 2026-05-09 01:23 | 32.09629 | 34.70847 | 2995 ft | 196 kts | 118° |
| 2026-05-09 01:23 | 32.08917 | 34.72223 | 2855 ft | 196 kts | 118° |
| 2026-05-09 01:23 | 32.08210 | 34.73589 | 2632 ft | 194 kts | 118° |
| 2026-05-09 01:23 | 32.07507 | 34.74945 | 2387 ft | 193 kts | 118° |
| 2026-05-09 01:24 | 32.06814 | 34.76277 | 2117 ft | 187 kts | 118° |
| 2026-05-09 01:24 | 32.06159 | 34.77541 | 1879 ft | 172 kts | 118° |
| 2026-05-09 01:24 | 32.05555 | 34.78708 | 1680 ft | 162 kts | 119° |
| 2026-05-09 01:24 | 32.04981 | 34.79810 | 1450 ft | 156 kts | 119° |
| 2026-05-09 01:25 | 32.04422 | 34.80885 | 1254 ft | 153 kts | 120° |
| 2026-05-09 01:25 | 32.03872 | 34.81948 | 1057 ft | 151 kts | 120° |
| 2026-05-09 01:25 | 32.03332 | 34.82993 | 868 ft | 148 kts | 122° |
| 2026-05-09 01:25 | 32.02801 | 34.84022 | 669 ft | 146 kts | 122° |
| 2026-05-09 01:26 | 32.02274 | 34.85035 | 492 ft | 144 kts | 122° |
| 2026-05-09 01:26 | 32.01753 | 34.86037 | 297 ft | 143 kts | 123° |
| 2026-05-09 01:26 | 32.01235 | 34.87035 | 139 ft | 142 kts | 123° |
| 2026-05-09 01:26 | 32.00781 | 34.87917 | 119 ft | 103 kts | 121° |
| 2026-05-09 01:27 | 32.00538 | 34.88376 | 119 ft | 38 kts | 121° |
| 2026-05-09 01:27 | 32.00388 | 34.88585 | 122 ft | 31 kts | 141° |
| 2026-05-09 01:27 | 32.00257 | 34.88676 | 119 ft | 15 kts | 165° |
| 2026-05-09 01:27 | 32.00204 | 34.88605 | 120 ft | 14 kts | 281° |
| 2026-05-09 01:28 | 32.00252 | 34.88502 | 117 ft | 15 kts | 300° |
| 2026-05-09 01:28 | 32.00308 | 34.88394 | 119 ft | 16 kts | 302° |
| 2026-05-09 01:28 | 32.00368 | 34.88281 | 119 ft | 17 kts | 302° |
| 2026-05-09 01:28 | 32.00434 | 34.88156 | 118 ft | 19 kts | 301° |
| 2026-05-09 01:29 | 32.00500 | 34.88030 | 118 ft | 16 kts | 301° |
| 2026-05-09 01:29 | 32.00550 | 34.87926 | 119 ft | 11 kts | 285° |
| 2026-05-09 01:29 | 32.00521 | 34.87847 | 117 ft | 10 kts | 265° |
| 2026-05-09 01:29 | 32.00552 | 34.87767 | 119 ft | 12 kts | 301° |
| 2026-05-09 01:30 | 32.00564 | 34.87685 | 118 ft | 11 kts | 240° |
| 2026-05-09 01:30 | 32.00526 | 34.87614 | 118 ft | 10 kts | 236° |
| 2026-05-09 01:30 | 32.00509 | 34.87585 | 119 ft | 4 kts | 236° |
| 2026-05-09 01:30 | 32.00491 | 34.87548 | 117 ft | 6 kts | 257° |
| 2026-05-09 01:31 | 32.00505 | 34.87501 | 119 ft | 4 kts | 292° |
| 2026-05-09 01:31 | 32.00509 | 34.87476 | 118 ft | 1 kts | 278° |
| 2026-05-09 01:31 | 32.00509 | 34.87473 | 118 ft | 0 kts | 277° |